createdAt,value
2019-02-17T00:00:13.656Z,4.30
2019-02-17T00:02:41.935Z,4.30
2019-02-17T00:05:10.248Z,4.20
2019-02-17T00:07:38.614Z,4.20
2019-02-17T00:10:06.858Z,4.20
2019-02-17T00:12:35.131Z,4.20
2019-02-17T00:15:03.888Z,4.20
2019-02-17T00:17:32.170Z,3.90
2019-02-17T00:20:00.703Z,3.90
2019-02-17T00:22:28.977Z,3.90
2019-02-17T00:24:57.227Z,4.00
2019-02-17T00:27:25.485Z,3.90
2019-02-17T00:29:53.740Z,4.00
2019-02-17T00:32:21.989Z,4.00
2019-02-17T00:34:50.254Z,3.90
2019-02-17T00:37:18.832Z,4.00
2019-02-17T00:39:47.418Z,3.90
2019-02-17T00:42:15.998Z,3.90
2019-02-17T00:44:44.585Z,3.90
2019-02-17T00:47:13.174Z,3.90
2019-02-17T00:49:41.443Z,3.80
2019-02-17T00:52:09.778Z,3.80
2019-02-17T00:54:38.048Z,3.80
2019-02-17T00:57:06.309Z,3.80
2019-02-17T00:59:34.859Z,3.80
2019-02-17T01:02:03.106Z,3.70
2019-02-17T01:04:31.387Z,3.70
2019-02-17T01:06:59.888Z,3.70
2019-02-17T01:09:28.465Z,3.70
2019-02-17T01:11:56.709Z,3.70
2019-02-17T01:14:24.994Z,3.60
2019-02-17T01:16:53.517Z,3.60
2019-02-17T01:19:21.797Z,3.60
2019-02-17T01:21:50.054Z,3.50
2019-02-17T01:24:18.343Z,3.50
2019-02-17T01:26:46.592Z,3.50
2019-02-17T01:29:20.366Z,3.50
2019-02-17T01:31:44.830Z,3.50
2019-02-17T01:34:13.117Z,3.50
2019-02-17T01:36:41.372Z,3.50
2019-02-17T01:39:09.638Z,3.40
2019-02-17T01:41:38.236Z,3.40
2019-02-17T01:44:06.519Z,3.40
2019-02-17T01:46:34.780Z,3.40
2019-02-17T01:49:03.122Z,3.40
2019-02-17T01:51:31.370Z,3.40
2019-02-17T01:53:59.650Z,3.30
2019-02-17T01:56:27.889Z,3.30
2019-02-17T01:58:56.163Z,3.30
2019-02-17T02:01:24.434Z,3.30
2019-02-17T02:03:52.714Z,3.30
2019-02-17T02:06:21.064Z,3.30
2019-02-17T02:08:49.651Z,3.30
2019-02-17T02:11:18.245Z,3.30
2019-02-17T02:13:46.485Z,3.20
2019-02-17T02:16:14.765Z,3.20
2019-02-17T02:18:43.018Z,3.20
2019-02-17T02:21:11.296Z,3.20
2019-02-17T02:23:39.540Z,3.20
2019-02-17T02:26:07.814Z,3.20
2019-02-17T02:28:36.372Z,3.10
2019-02-17T02:31:04.650Z,3.10
2019-02-17T02:33:33.233Z,2.90
2019-02-17T02:36:01.540Z,2.90
2019-02-17T02:38:30.093Z,3.00
2019-02-17T02:40:58.366Z,3.00
2019-02-17T02:43:26.613Z,2.90
2019-02-17T02:45:55.243Z,3.00
2019-02-17T02:48:23.524Z,3.00
2019-02-17T02:50:53.225Z,3.00
2019-02-17T02:53:21.719Z,2.90
2019-02-17T02:55:49.994Z,2.90
2019-02-17T02:58:18.253Z,2.90
2019-02-17T03:00:46.522Z,2.90
2019-02-17T03:03:14.779Z,2.80
2019-02-17T03:05:45.040Z,2.60
2019-02-17T03:08:13.306Z,2.70
2019-02-17T03:10:41.622Z,2.70
2019-02-17T03:13:10.180Z,2.70
2019-02-17T03:15:38.749Z,2.70
2019-02-17T03:18:07.004Z,2.70
2019-02-17T03:20:35.339Z,2.80
2019-02-17T03:23:03.608Z,2.70
2019-02-17T03:25:32.114Z,2.70
2019-02-17T03:28:00.388Z,2.70
2019-02-17T03:30:28.662Z,2.70
2019-02-17T03:32:56.927Z,2.70
2019-02-17T03:35:25.192Z,2.70
2019-02-17T03:37:53.431Z,2.70
2019-02-17T03:40:21.694Z,2.60
2019-02-17T03:42:49.962Z,2.60
2019-02-17T03:45:18.221Z,2.60
2019-02-17T03:47:46.733Z,2.50
2019-02-17T03:50:15.253Z,2.50
2019-02-17T03:52:43.505Z,2.50
2019-02-17T03:55:11.788Z,2.50
2019-02-17T03:57:40.040Z,2.40
2019-02-17T04:00:16.479Z,2.40
2019-02-17T04:02:38.777Z,2.40
2019-02-17T04:05:07.250Z,2.40
2019-02-17T04:07:35.536Z,2.40
2019-02-17T04:10:04.091Z,2.40
2019-02-17T04:12:32.403Z,2.30
2019-02-17T04:15:01.056Z,2.40
2019-02-17T04:17:29.659Z,2.30
2019-02-17T04:19:57.906Z,2.30
2019-02-17T04:22:26.538Z,2.30
2019-02-17T04:24:55.174Z,2.30
2019-02-17T04:27:23.442Z,2.30
2019-02-17T04:29:52.047Z,2.20
2019-02-17T04:32:20.624Z,2.30
2019-02-17T04:34:48.895Z,2.30
2019-02-17T04:37:17.142Z,2.30
2019-02-17T04:39:45.754Z,2.30
2019-02-17T04:42:14.341Z,2.30
2019-02-17T04:44:43.020Z,2.20
2019-02-17T04:47:11.271Z,2.10
2019-02-17T04:49:39.548Z,2.10
2019-02-17T04:52:07.786Z,2.10
2019-02-17T04:54:36.073Z,2.10
2019-02-17T04:57:04.393Z,2.10
2019-02-17T04:59:32.988Z,2.10
2019-02-17T05:02:01.254Z,2.10
2019-02-17T05:04:29.531Z,2.00
2019-02-17T05:06:58.482Z,2.00
2019-02-17T05:09:26.753Z,2.00
2019-02-17T05:11:55.005Z,2.00
2019-02-17T05:14:23.269Z,2.00
2019-02-17T05:16:51.513Z,2.00
2019-02-17T05:19:20.125Z,1.90
2019-02-17T05:21:48.381Z,1.90
2019-02-17T05:24:16.665Z,2.00
2019-02-17T05:26:44.947Z,1.90
2019-02-17T05:29:13.235Z,1.90
2019-02-17T05:31:41.482Z,1.90
2019-02-17T05:34:09.758Z,1.90
2019-02-17T05:36:38.067Z,1.80
2019-02-17T05:39:06.512Z,1.80
2019-02-17T05:41:34.764Z,1.50
2019-02-17T05:44:03.389Z,1.60
2019-02-17T05:46:31.981Z,1.60
2019-02-17T05:49:00.308Z,1.60
2019-02-17T05:51:28.602Z,1.60
2019-02-17T05:53:57.232Z,1.60
2019-02-17T05:56:25.475Z,1.60
2019-02-17T05:58:53.720Z,1.60
2019-02-17T06:01:22.001Z,1.60
2019-02-17T06:03:50.256Z,1.50
2019-02-17T06:06:18.572Z,1.50
2019-02-17T06:08:46.888Z,1.50
2019-02-17T06:11:15.161Z,1.50
2019-02-17T06:13:43.442Z,1.50
2019-02-17T06:16:11.739Z,1.50
2019-02-17T06:18:40.067Z,1.40
2019-02-17T06:21:08.361Z,1.40
2019-02-17T06:23:36.619Z,1.40
2019-02-17T06:26:05.221Z,1.40
2019-02-17T06:28:33.499Z,1.40
2019-02-17T06:31:01.779Z,1.40
2019-02-17T06:33:30.054Z,1.40
2019-02-17T06:35:58.401Z,1.40
2019-02-17T06:38:26.638Z,1.40
2019-02-17T06:40:54.932Z,1.30
2019-02-17T06:43:23.451Z,1.20
2019-02-17T06:45:52.460Z,1.30
2019-02-17T06:48:20.730Z,1.30
2019-02-17T06:50:49.009Z,1.30
2019-02-17T06:53:17.266Z,1.20
2019-02-17T06:55:50.316Z,1.20
2019-02-17T06:58:18.574Z,1.30
2019-02-17T07:00:47.117Z,1.30
2019-02-17T07:03:15.416Z,1.30
2019-02-17T07:06:03.575Z,1.30
2019-02-17T07:08:32.144Z,1.40
2019-02-17T07:11:00.464Z,1.40
2019-02-17T07:13:28.723Z,1.40
2019-02-17T07:15:57.001Z,1.40
2019-02-17T07:18:25.253Z,1.50
2019-02-17T07:20:53.525Z,1.50
2019-02-17T07:23:22.184Z,1.50
2019-02-17T07:25:50.467Z,1.50
2019-02-17T07:28:18.728Z,1.60
2019-02-17T07:30:47.014Z,1.60
2019-02-17T07:33:15.353Z,1.70
2019-02-17T07:35:43.826Z,1.70
2019-02-17T07:38:12.411Z,1.80
2019-02-17T07:40:40.939Z,1.70
2019-02-17T07:43:09.265Z,1.80
2019-02-17T07:45:37.824Z,1.80
2019-02-17T07:48:06.138Z,1.90
2019-02-17T07:50:34.439Z,1.90
2019-02-17T07:53:02.677Z,1.90
2019-02-17T07:55:30.965Z,2.00
2019-02-17T07:57:59.220Z,2.00
2019-02-17T08:00:27.477Z,2.10
2019-02-17T08:02:56.061Z,2.10
2019-02-17T08:05:24.621Z,2.20
2019-02-17T08:07:52.921Z,2.20
2019-02-17T08:10:21.491Z,2.30
2019-02-17T08:12:49.790Z,2.40
2019-02-17T08:15:18.036Z,2.40
2019-02-17T08:17:46.336Z,2.50
2019-02-17T08:20:14.620Z,2.60
2019-02-17T08:22:42.906Z,2.60
2019-02-17T08:25:19.346Z,2.70
2019-02-17T08:27:41.213Z,2.70
2019-02-17T08:30:13.483Z,2.80
2019-02-17T08:32:44.045Z,2.80
2019-02-17T08:35:12.439Z,2.80
2019-02-17T08:37:40.765Z,2.90
2019-02-17T08:40:10.213Z,2.90
2019-02-17T08:42:38.517Z,3.00
2019-02-17T08:45:08.808Z,3.10
2019-02-17T08:47:37.087Z,3.20
2019-02-17T08:50:08.968Z,3.20
2019-02-17T08:52:37.327Z,3.30
2019-02-17T08:55:08.174Z,3.30
2019-02-17T08:57:38.074Z,3.40
2019-02-17T09:00:09.893Z,3.50
2019-02-17T09:02:38.198Z,3.50
2019-02-17T09:05:06.448Z,3.50
2019-02-17T09:07:35.388Z,3.60
2019-02-17T09:10:08.354Z,3.60
2019-02-17T09:12:36.748Z,3.70
2019-02-17T09:15:08.237Z,3.70
2019-02-17T09:17:36.518Z,3.80
2019-02-17T09:20:07.932Z,3.90
2019-02-17T09:22:36.387Z,4.00
2019-02-17T09:25:07.244Z,4.20
2019-02-17T09:27:35.538Z,4.40
2019-02-17T09:30:04.925Z,4.50
2019-02-17T09:32:33.211Z,4.60
2019-02-17T09:35:01.791Z,4.60
2019-02-17T09:37:30.113Z,4.70
2019-02-17T09:39:58.365Z,4.70
2019-02-17T09:42:26.748Z,4.70
2019-02-17T09:44:55.020Z,4.80
2019-02-17T09:47:23.332Z,4.90
2019-02-17T09:49:51.600Z,4.90
2019-02-17T09:52:20.275Z,5.00
2019-02-17T09:54:48.564Z,5.20
2019-02-17T09:57:16.848Z,5.30
2019-02-17T09:59:45.127Z,5.40
2019-02-17T10:02:13.424Z,5.50
2019-02-17T10:04:41.689Z,5.60
2019-02-17T10:07:09.983Z,5.70
2019-02-17T10:09:38.361Z,5.70
2019-02-17T10:12:06.664Z,5.90
2019-02-17T10:14:34.903Z,5.90
2019-02-17T10:17:03.194Z,5.90
2019-02-17T10:19:31.465Z,6.00
2019-02-17T10:21:59.749Z,6.10
2019-02-17T10:24:27.996Z,6.10
2019-02-17T10:26:56.606Z,6.20
2019-02-17T10:29:24.861Z,6.30
2019-02-17T10:31:53.098Z,6.30
2019-02-17T10:34:21.407Z,6.40
2019-02-17T10:36:49.672Z,6.50
2019-02-17T10:39:17.965Z,6.50
2019-02-17T10:41:46.209Z,6.60
2019-02-17T10:44:14.489Z,6.70
2019-02-17T10:46:43.013Z,6.70
2019-02-17T10:49:11.596Z,6.80
2019-02-17T10:51:39.863Z,6.90
2019-02-17T10:54:08.206Z,7.00
2019-02-17T10:56:36.515Z,7.00
2019-02-17T10:59:04.815Z,7.20
2019-02-17T11:01:33.396Z,7.30
2019-02-17T11:04:03.927Z,7.40
2019-02-17T11:06:32.525Z,7.60
2019-02-17T11:09:01.401Z,7.60
2019-02-17T11:11:29.969Z,7.70
2019-02-17T11:13:58.245Z,7.70
2019-02-17T11:16:26.504Z,7.80
2019-02-17T11:18:55.130Z,7.90
2019-02-17T11:21:23.689Z,7.90
2019-02-17T11:23:51.995Z,8.00
2019-02-17T11:26:20.236Z,8.00
2019-02-17T11:28:48.606Z,8.10
2019-02-17T11:31:16.879Z,8.10
2019-02-17T11:33:45.168Z,8.10
2019-02-17T11:36:13.499Z,8.00
2019-02-17T11:38:41.782Z,8.10
2019-02-17T11:41:12.416Z,8.10
2019-02-17T11:43:40.141Z,8.20
2019-02-17T11:46:08.743Z,8.20
2019-02-17T11:48:37.323Z,8.30
2019-02-17T11:51:05.895Z,8.40
2019-02-17T11:53:34.210Z,8.40
2019-02-17T11:56:02.486Z,8.50
2019-02-17T11:58:30.897Z,8.60
2019-02-17T12:00:59.169Z,8.60
2019-02-17T12:03:27.418Z,8.60
2019-02-17T12:05:56.038Z,8.70
2019-02-17T12:08:24.623Z,8.70
2019-02-17T12:11:01.650Z,8.80
2019-02-17T12:13:29.909Z,8.80
2019-02-17T12:15:58.225Z,8.90
2019-02-17T12:18:26.533Z,8.90
2019-02-17T12:21:13.035Z,8.90
2019-02-17T12:23:42.961Z,8.90
2019-02-17T12:26:13.014Z,8.90
2019-02-17T12:28:43.175Z,9.00
2019-02-17T12:31:13.185Z,9.10
2019-02-17T12:33:41.515Z,9.20
2019-02-17T12:36:10.065Z,9.20
2019-02-17T12:38:38.665Z,9.30
2019-02-17T12:41:07.033Z,9.30
2019-02-17T12:43:35.286Z,9.40
2019-02-17T12:46:04.082Z,9.40
2019-02-17T12:48:32.368Z,9.50
2019-02-17T12:51:00.739Z,9.50
2019-02-17T12:53:28.997Z,9.60
2019-02-17T12:55:57.585Z,9.70
2019-02-17T12:58:30.106Z,9.80
2019-02-17T13:00:56.283Z,9.80
2019-02-17T13:03:28.573Z,9.80
2019-02-17T13:05:54.996Z,9.90
2019-02-17T13:08:23.342Z,10.00
2019-02-17T13:10:52.101Z,10.10
2019-02-17T13:13:20.345Z,10.10
2019-02-17T13:15:48.655Z,10.20
2019-02-17T13:18:17.434Z,10.30
2019-02-17T13:20:46.001Z,10.30
2019-02-17T13:23:14.495Z,10.40
2019-02-17T13:25:42.841Z,10.50
2019-02-17T13:28:14.229Z,10.60
2019-02-17T13:30:42.611Z,10.60
2019-02-17T13:33:11.048Z,10.70
2019-02-17T13:35:39.755Z,10.70
2019-02-17T13:38:08.026Z,10.70
2019-02-17T13:40:36.323Z,10.80
2019-02-17T13:43:05.095Z,10.80
2019-02-17T13:45:33.411Z,10.90
2019-02-17T13:48:01.740Z,11.00
2019-02-17T13:50:30.076Z,11.00
2019-02-17T13:52:58.390Z,11.10
2019-02-17T13:55:26.742Z,11.10
2019-02-17T13:57:56.016Z,11.30
2019-02-17T14:00:24.452Z,11.30
2019-02-17T14:02:52.774Z,11.40
2019-02-17T14:05:21.487Z,11.40
2019-02-17T14:07:49.741Z,11.50
2019-02-17T14:10:18.022Z,11.50
2019-02-17T14:12:46.909Z,11.60
2019-02-17T14:15:20.073Z,11.60
2019-02-17T14:17:48.507Z,11.70
2019-02-17T14:20:17.148Z,11.80
2019-02-17T14:22:45.467Z,11.90
2019-02-17T14:25:14.095Z,12.00
2019-02-17T14:27:42.830Z,12.20
2019-02-17T14:30:14.735Z,12.30
2019-02-17T14:32:43.230Z,12.50
2019-02-17T14:35:11.668Z,12.50
2019-02-17T14:37:40.246Z,12.60
2019-02-17T14:40:15.016Z,12.60
2019-02-17T14:42:43.621Z,12.70
2019-02-17T14:45:14.090Z,12.70
2019-02-17T14:47:44.080Z,12.60
2019-02-17T14:50:14.061Z,12.60
2019-02-17T14:52:42.932Z,12.60
2019-02-17T14:55:12.189Z,12.50
2019-02-17T14:57:40.494Z,12.50
2019-02-17T15:00:13.843Z,12.40
2019-02-17T15:02:42.191Z,12.40
2019-02-17T15:05:10.717Z,12.40
2019-02-17T15:07:39.004Z,12.40
2019-02-17T15:10:11.902Z,12.30
2019-02-17T15:12:40.503Z,12.30
2019-02-17T15:15:11.661Z,12.30
2019-02-17T15:17:39.960Z,12.30
2019-02-17T15:20:11.997Z,12.30
2019-02-17T15:22:40.300Z,12.30
2019-02-17T15:25:10.793Z,12.30
2019-02-17T15:27:39.129Z,12.20
2019-02-17T15:30:10.906Z,12.20
2019-02-17T15:32:39.249Z,12.20
2019-02-17T15:35:07.506Z,12.20
2019-02-17T15:37:35.828Z,12.20
2019-02-17T15:40:09.474Z,12.20
2019-02-17T15:42:37.777Z,12.10
2019-02-17T15:45:09.298Z,12.10
2019-02-17T15:47:37.592Z,12.10
2019-02-17T15:50:10.156Z,12.00
2019-02-17T15:52:38.475Z,12.00
2019-02-17T15:55:09.828Z,12.00
2019-02-17T15:57:38.135Z,12.00
2019-02-17T16:00:12.195Z,12.00
2019-02-17T16:02:40.504Z,12.00
2019-02-17T16:05:09.405Z,12.00
2019-02-17T16:07:37.989Z,11.90
2019-02-17T16:10:11.127Z,11.90
2019-02-17T16:12:39.470Z,11.90
2019-02-17T16:15:10.933Z,11.80
2019-02-17T16:17:39.253Z,11.80
2019-02-17T16:20:10.449Z,11.70
2019-02-17T16:22:39.037Z,11.70
2019-02-17T16:25:08.890Z,11.60
2019-02-17T16:27:37.226Z,11.60
2019-02-17T16:30:17.918Z,11.50
2019-02-17T16:32:46.250Z,11.50
2019-02-17T16:35:14.527Z,11.40
2019-02-17T16:37:42.911Z,11.40
2019-02-17T16:40:13.553Z,11.40
2019-02-17T16:42:41.855Z,11.40
2019-02-17T16:45:14.450Z,11.30
2019-02-17T16:47:43.446Z,11.20
2019-02-17T16:50:15.161Z,11.20
2019-02-17T16:52:43.498Z,11.10
2019-02-17T16:55:11.741Z,11.10
2019-02-17T16:57:40.399Z,11.10
2019-02-17T17:00:12.101Z,11.00
2019-02-17T17:02:40.389Z,11.00
2019-02-17T17:05:10.582Z,10.90
2019-02-17T17:07:39.249Z,10.90
2019-02-17T17:10:07.823Z,10.90
2019-02-17T17:12:36.119Z,10.80
2019-02-17T17:15:05.705Z,10.70
2019-02-17T17:17:34.553Z,10.70
2019-02-17T17:20:03.338Z,10.70
2019-02-17T17:22:31.980Z,10.60
2019-02-17T17:25:00.677Z,10.60
2019-02-17T17:27:28.978Z,10.50
2019-02-17T17:29:57.233Z,10.50
2019-02-17T17:32:25.787Z,10.40
2019-02-17T17:34:58.800Z,10.40
2019-02-17T17:37:24.086Z,10.30
2019-02-17T17:39:52.336Z,10.30
2019-02-17T17:42:20.584Z,10.30
2019-02-17T17:44:49.144Z,10.20
2019-02-17T17:47:17.442Z,10.20
2019-02-17T17:49:46.039Z,10.20
2019-02-17T17:52:14.610Z,10.10
2019-02-17T17:54:42.974Z,10.10
2019-02-17T17:57:11.488Z,10.00
2019-02-17T17:59:39.790Z,10.00
2019-02-17T18:02:08.123Z,9.90
2019-02-17T18:04:36.417Z,9.90
2019-02-17T18:07:04.672Z,9.80
2019-02-17T18:09:33.101Z,9.70
2019-02-17T18:12:01.387Z,9.70
2019-02-17T18:14:29.772Z,9.60
2019-02-17T18:16:58.027Z,9.50
2019-02-17T18:19:26.593Z,9.40
2019-02-17T18:21:54.890Z,9.40
2019-02-17T18:24:23.259Z,9.30
2019-02-17T18:26:51.544Z,9.20
2019-02-17T18:29:20.233Z,9.20
2019-02-17T18:31:48.494Z,9.20
2019-02-17T18:34:16.883Z,9.10
2019-02-17T18:36:45.139Z,9.10
2019-02-17T18:39:13.433Z,9.00
2019-02-17T18:41:41.777Z,9.00
2019-02-17T18:44:10.131Z,8.90
2019-02-17T18:46:38.445Z,8.90
2019-02-17T18:49:06.753Z,8.80
2019-02-17T18:51:35.001Z,8.80
2019-02-17T18:54:03.301Z,8.70
2019-02-17T18:56:31.637Z,8.70
2019-02-17T18:59:00.136Z,8.60
2019-02-17T19:01:28.474Z,8.50
2019-02-17T19:03:56.797Z,8.50
2019-02-17T19:06:25.111Z,8.40
2019-02-17T19:08:53.725Z,8.40
2019-02-17T19:11:22.047Z,8.30
2019-02-17T19:13:50.332Z,8.30
2019-02-17T19:16:18.835Z,8.20
2019-02-17T19:18:47.210Z,8.20
2019-02-17T19:21:15.477Z,8.20
2019-02-17T19:23:43.786Z,8.10
2019-02-17T19:26:12.026Z,8.00
2019-02-17T19:28:40.320Z,7.90
2019-02-17T19:31:08.834Z,7.90
2019-02-17T19:33:37.410Z,7.90
2019-02-17T19:36:06.005Z,7.80
2019-02-17T19:38:34.304Z,7.80
2019-02-17T19:41:02.592Z,7.70
2019-02-17T19:43:30.924Z,7.70
2019-02-17T19:45:59.464Z,7.60
2019-02-17T19:48:27.725Z,7.60
2019-02-17T19:50:56.334Z,7.50
2019-02-17T19:53:24.604Z,7.40
2019-02-17T19:55:53.227Z,7.40
2019-02-17T19:58:21.893Z,7.30
2019-02-17T20:00:50.450Z,7.30
2019-02-17T20:03:23.938Z,7.20
2019-02-17T20:05:54.190Z,7.20
2019-02-17T20:08:22.446Z,7.10
2019-02-17T20:10:50.816Z,7.10
2019-02-17T20:13:19.318Z,7.10
2019-02-17T20:15:47.706Z,7.00
2019-02-17T20:18:16.220Z,6.90
2019-02-17T20:20:44.899Z,6.90
2019-02-17T20:23:13.397Z,6.90
2019-02-17T20:25:41.697Z,6.80
2019-02-17T20:28:09.967Z,6.80
2019-02-17T20:30:38.526Z,6.70
2019-02-17T20:33:06.845Z,6.80
2019-02-17T20:35:35.438Z,6.70
2019-02-17T20:38:05.453Z,6.70
2019-02-17T20:40:33.817Z,6.60
2019-02-17T20:43:02.190Z,6.60
2019-02-17T20:45:30.799Z,6.50
2019-02-17T20:47:59.047Z,6.50
2019-02-17T20:50:27.638Z,6.40
2019-02-17T20:52:55.881Z,6.40
2019-02-17T20:55:24.401Z,6.40
2019-02-17T20:57:52.782Z,6.40
2019-02-17T21:00:23.029Z,6.30
2019-02-17T21:02:51.354Z,6.30
2019-02-17T21:05:19.672Z,6.20
2019-02-17T21:07:48.260Z,6.20
2019-02-17T21:10:16.654Z,6.20
2019-02-17T21:12:45.039Z,6.10
2019-02-17T21:15:14.829Z,6.10
2019-02-17T21:17:43.069Z,6.00
2019-02-17T21:20:11.609Z,6.00
2019-02-17T21:22:39.857Z,6.00
2019-02-17T21:25:12.891Z,6.00
2019-02-17T21:27:41.284Z,6.00
2019-02-17T21:30:17.990Z,5.90
2019-02-17T21:32:46.804Z,5.90
2019-02-17T21:35:16.243Z,5.90
2019-02-17T21:37:44.559Z,5.80
2019-02-17T21:40:13.351Z,5.80
2019-02-17T21:42:41.952Z,5.80
2019-02-17T21:45:11.469Z,5.70
2019-02-17T21:47:39.743Z,5.70
2019-02-17T21:50:11.379Z,5.60
2019-02-17T21:52:41.783Z,5.60
2019-02-17T21:55:13.932Z,5.60
2019-02-17T21:57:42.350Z,5.60
2019-02-17T22:00:19.160Z,5.60
2019-02-17T22:02:47.767Z,5.50
2019-02-17T22:05:16.134Z,5.50
2019-02-17T22:07:44.617Z,5.50
2019-02-17T22:10:14.782Z,5.40
2019-02-17T22:12:43.524Z,5.40
2019-02-17T22:15:17.892Z,5.40
2019-02-17T22:17:46.939Z,5.30
2019-02-17T22:20:15.285Z,5.20
2019-02-17T22:22:43.601Z,5.20
2019-02-17T22:25:11.999Z,5.20
2019-02-17T22:27:40.516Z,5.10
2019-02-17T22:30:15.379Z,5.10
2019-02-17T22:32:43.773Z,5.10
2019-02-17T22:35:12.419Z,5.10
2019-02-17T22:37:40.744Z,5.10
2019-02-17T22:40:11.081Z,5.00
2019-02-17T22:42:39.346Z,4.90
2019-02-17T22:45:10.087Z,4.90
2019-02-17T22:47:38.692Z,4.90
2019-02-17T22:50:13.089Z,4.90
2019-02-17T22:52:41.366Z,4.90
2019-02-17T22:55:11.622Z,4.80
2019-02-17T22:57:39.966Z,4.80
2019-02-17T23:00:24.746Z,4.70
2019-02-17T23:02:53.273Z,4.70
2019-02-17T23:05:21.612Z,4.70
2019-02-17T23:07:49.897Z,4.70
2019-02-17T23:10:18.405Z,4.60
2019-02-17T23:12:46.699Z,4.60
2019-02-17T23:15:14.959Z,4.50
2019-02-17T23:17:43.225Z,4.50
2019-02-17T23:20:12.343Z,4.40
2019-02-17T23:22:40.620Z,4.40
2019-02-17T23:25:09.116Z,4.40
2019-02-17T23:27:37.401Z,4.30
2019-02-17T23:30:08.649Z,4.40
2019-02-17T23:32:36.950Z,4.30
2019-02-17T23:35:05.519Z,4.30
2019-02-17T23:37:34.035Z,4.30
2019-02-17T23:40:02.353Z,4.30
2019-02-17T23:42:30.641Z,4.20
2019-02-17T23:44:58.886Z,4.20
2019-02-17T23:47:27.181Z,4.10
2019-02-17T23:49:55.490Z,4.10
2019-02-17T23:52:23.842Z,4.10
2019-02-17T23:54:52.089Z,4.10
2019-02-17T23:57:20.382Z,4.00
2019-02-17T23:59:48.635Z,4.00
